This is the latest recevied weather packets stored in our database for station/object K5MGY. If no packets are shown the sender has not sent any weather packets the latest 1 day(s).
| Time | Temp. | Humidity | Pressure | Rain* | Wind** | Luminosity | Snow |
|---|---|---|---|---|---|---|---|
| 1836274790 | 26.67° C | 67% | 1040 hPa | 0 mm | 0 m/s | 0 W/m² | - |
| 1836274488 | 27.22° C | 66% | 1039.9 hPa | 0 mm | 0.45 m/s, 247° | 0 W/m² | - |
| 1836274342 | 26.67° C | 67% | 1040 hPa | 0 mm | 0 m/s | 0 W/m² | - |
| 1836274186 | 27.22° C | 66% | 1040.2 hPa | 0 mm | 0 m/s | 0 W/m² | - |
| 1836273886 | 27.22° C | 65% | 1039.8 hPa | 0 mm | 0 m/s | 0 W/m² | - |
| 1778048620 | 18.33° C | 73% | 1033.4 hPa | 0 mm | 0 m/s | 0 W/m² | - |
| 1778048316 | 18.33° C | 73% | 1033.3 hPa | 0 mm | 0 m/s | 0 W/m² | - |
| 1778048013 | 18.33° C | 73% | 1033.3 hPa | 0 mm | 0 m/s | 0 W/m² | - |
| 1778047711 | 18.33° C | 73% | 1033.4 hPa | 0 mm | 0 m/s | 0 W/m² | - |
| 1778047409 | 18.89° C | 72% | 1033.4 hPa | 0 mm | 0 m/s | 0 W/m² | - |
| 1778047105 | 18.89° C | 73% | 1033.4 hPa | 0 mm | 0 m/s | 0 W/m² | - |
| 1778046803 | 18.89° C | 73% | 1033.3 hPa | 0 mm | 0.45 m/s, 279° | 0 W/m² | - |
| 1778046500 | 18.89° C | 73% | 1033.4 hPa | 0 mm | 0 m/s | 0 W/m² | - |
| 1778046196 | 18.89° C | 73% | 1033.4 hPa | 0 mm | 0 m/s | 0 W/m² | - |
| 1778045892 | 18.89° C | 73% | 1033.2 hPa | 0 mm | 0 m/s | 0 W/m² | - |
| 1778045592 | 18.89° C | 73% | 1033.4 hPa | 0 mm | 0 m/s | 0 W/m² | - |
| 1778045289 | 19.44° C | 73% | 1033.2 hPa | 0 mm | 0 m/s | 0 W/m² | - |
| 1778044988 | 19.44° C | 73% | 1033.5 hPa | 0 mm | 0 m/s | 0 W/m² | - |
| 1778044685 | 19.44° C | 73% | 1033.4 hPa | 0 mm | 0 m/s | 0 W/m² | - |
| 1778044381 | 19.44° C | 73% | 1033.4 hPa | 0 mm | 0 m/s | 0 W/m² | - |
| 1778044079 | 19.44° C | 73% | 1033.5 hPa | 0 mm | 0 m/s | 0 W/m² | - |
| 1778043776 | 19.44° C | 73% | 1033.2 hPa | 0 mm | 0 m/s | 0 W/m² | - |
| 1778043472 | 20° C | 72% | 1033.3 hPa | 0 mm | 0.45 m/s, 275° | 0 W/m² | - |
| 1778043169 | 20° C | 72% | 1033 hPa | 0 mm | 0.45 m/s, 261° | 0 W/m² | - |
| 1778042866 | 20° C | 72% | 1033.2 hPa | 0 mm | 0 m/s | 0 W/m² | - |
* Rain latest hour (hover to see other rain measurements)
** Current wind speed in m/s (hover to see current wind gust speed)